Time;durP1;ratioP1;P1;durP2;ratioP2;P2;SDS_P1;SDS_P2;PMS_P1;PMS_P2;Temp;Humidity;BMP_temperature;BMP_pressure;BME280_temperature;BME280_humidity;BME280_pressure;Samples;Min_cycle;Max_cycle;Signal;HPM_P1;HPM_P2
2020/12/17 00:01:58;;;;;;;381.27;202.98;;;;;;;6.85;100.00;100305.72;6201025;23;20012;-78
2020/12/17 00:04:26;;;;;;;378.10;203.07;;;;;;;6.84;100.00;100305.97;6201448;23;20020;-77
2020/12/17 00:06:52;;;;;;;353.67;184.43;;;;;;;6.82;100.00;100306.22;6249689;23;20336;-78
2020/12/17 00:09:20;;;;;;;324.25;167.52;;;;;;;6.82;100.00;100314.50;6199548;23;20004;-78
2020/12/17 00:11:48;;;;;;;335.38;173.70;;;;;;;6.80;100.00;100308.47;6199384;23;20015;-78
2020/12/17 00:14:17;;;;;;;308.98;158.73;;;;;;;6.79;100.00;100317.81;6225386;23;20372;-78
2020/12/17 00:16:45;;;;;;;299.95;153.63;;;;;;;6.76;100.00;100306.50;6224318;23;20027;-78
2020/12/17 00:19:11;;;;;;;288.63;146.15;;;;;;;6.74;100.00;100314.22;6224362;23;20008;-78
2020/12/17 00:21:37;;;;;;;293.45;146.48;;;;;;;6.70;100.00;100314.78;6199526;23;20074;-77
2020/12/17 00:24:03;;;;;;;291.92;147.32;;;;;;;6.67;100.00;100309.81;6249765;23;20004;-78
2020/12/17 00:26:28;;;;;;;265.33;134.38;;;;;;;6.65;100.00;100322.22;6198053;23;20008;-78
2020/12/17 00:28:55;;;;;;;264.30;133.30;;;;;;;6.62;100.00;100326.34;6174953;23;20008;-78
2020/12/17 00:31:21;;;;;;;244.32;123.57;;;;;;;6.61;100.00;100323.88;6173987;23;20487;-78
2020/12/17 00:33:46;;;;;;;245.13;121.22;;;;;;;6.58;100.00;100322.50;6199809;23;20039;-78
2020/12/17 00:36:19;;;;;;;221.80;113.65;;;;;;;6.56;100.00;100323.84;6199094;23;20054;-78
2020/12/17 00:38:45;;;;;;;218.35;107.85;;;;;;;6.55;100.00;100327.72;6198982;23;20341;-78
2020/12/17 00:41:15;;;;;;;222.07;111.28;;;;;;;6.53;100.00;100318.88;6223488;23;20061;-77
2020/12/17 00:43:44;;;;;;;198.48;96.70;;;;;;;6.50;100.00;100320.25;6249704;23;20004;-77
2020/12/17 00:46:16;;;;;;;189.23;95.47;;;;;;;6.48;100.00;100334.31;6224824;23;20468;-78
2020/12/17 00:48:42;;;;;;;198.68;96.45;;;;;;;6.47;100.00;100346.44;6199689;23;20008;-78
2020/12/17 00:51:08;;;;;;;210.55;103.97;;;;;;;6.44;100.00;100338.72;6173910;23;20008;-79
2020/12/17 00:53:36;;;;;;;168.80;83.75;;;;;;;6.44;100.00;100343.41;6174649;23;20009;-78
2020/12/17 00:56:02;;;;;;;184.68;91.80;;;;;;;6.41;100.00;100344.78;6175021;23;20008;-78
2020/12/17 00:58:27;;;;;;;179.60;90.82;;;;;;;6.39;100.00;100352.50;6224360;23;20302;-78
2020/12/17 01:00:54;;;;;;;183.00;90.43;;;;;;;6.39;100.00;100351.66;6199128;23;20432;-78
2020/12/17 01:03:19;;;;;;;178.52;87.57;;;;;;;6.34;100.00;100355.22;6224187;23;20027;-78
2020/12/17 01:05:48;;;;;;;167.13;82.15;;;;;;;6.32;100.00;100356.59;6199292;23;20345;-78
2020/12/17 01:08:14;;;;;;;162.35;80.13;;;;;;;6.29;100.00;100363.47;6223968;23;20000;-78
2020/12/17 01:10:42;;;;;;;152.88;76.93;;;;;;;6.29;100.00;100359.88;6198261;23;20012;-78
2020/12/17 01:13:08;;;;;;;146.38;70.30;;;;;;;6.24;100.00;100366.19;6175498;23;20015;-78
2020/12/17 01:15:33;;;;;;;145.88;71.72;;;;;;;6.21;100.00;100361.22;6198876;22;20082;-78
2020/12/17 01:17:59;;;;;;;149.07;72.80;;;;;;;6.18;100.00;100373.63;6224132;23;20011;-78
2020/12/17 01:20:25;;;;;;;145.15;70.72;;;;;;;6.16;100.00;100369.50;6223719;23;20016;-78
2020/12/17 01:22:56;;;;;;;123.60;61.60;;;;;;;6.12;100.00;100371.13;6199186;23;20054;-78
2020/12/17 01:25:21;;;;;;;127.40;61.08;;;;;;;6.09;100.00;100379.94;6223258;23;20012;-78
2020/12/17 01:27:47;;;;;;;121.15;58.72;;;;;;;6.06;100.00;100383.22;6249139;23;20015;-78
2020/12/17 01:30:12;;;;;;;116.72;56.58;;;;;;;6.02;100.00;100386.53;6197863;23;20008;-78
2020/12/17 01:32:38;;;;;;;126.43;60.30;;;;;;;6.00;100.00;100390.63;6223777;23;20004;-78
2020/12/17 01:35:04;;;;;;;105.93;51.78;;;;;;;5.96;100.00;100386.75;6224403;23;20303;-78
2020/12/17 01:37:30;;;;;;;116.03;58.08;;;;;;;5.93;100.00;100390.84;6198874;23;20004;-78
2020/12/17 01:39:57;;;;;;;106.05;50.75;;;;;;;5.92;100.00;100397.44;6174795;23;20429;-78
2020/12/17 01:42:23;;;;;;;115.03;53.63;;;;;;;5.88;100.00;100396.31;6198581;23;20011;-78
2020/12/17 01:44:49;;;;;;;106.53;51.70;;;;;;;5.86;100.00;100412.28;6199143;23;20035;-78
2020/12/17 01:47:14;;;;;;;108.50;51.30;;;;;;;5.83;100.00;100410.91;6196848;23;20445;-77
2020/12/17 01:49:40;;;;;;;97.85;47.67;;;;;;;5.81;99.99;100417.75;6248685;23;20008;-77
2020/12/17 01:52:10;;;;;;;107.75;49.97;;;;;;;5.78;100.00;100429.31;6173716;23;20012;-78
2020/12/17 01:54:40;;;;;;;93.57;44.80;;;;;;;5.76;100.00;100421.31;6223871;23;20023;-78
2020/12/17 01:57:08;;;;;;;94.25;45.70;;;;;;;5.72;100.00;100424.88;6248888;23;20015;-78
2020/12/17 01:59:49;;;;;;;86.82;42.10;;;;;;;5.70;100.00;100438.06;6223588;23;20034;-78
2020/12/17 02:02:18;;;;;;;86.63;41.50;;;;;;;5.69;100.00;100445.50;6223242;23;20011;-78
2020/12/17 02:04:44;;;;;;;86.55;40.67;;;;;;;5.65;100.00;100446.28;6174857;23;20023;-78
2020/12/17 02:07:10;;;;;;;85.82;40.58;;;;;;;5.63;100.00;100445.72;6223594;23;20004;-78
2020/12/17 02:09:35;;;;;;;77.78;37.85;;;;;;;5.60;100.00;100450.69;6197848;23;20004;-78
2020/12/17 02:12:01;;;;;;;76.07;37.08;;;;;;;5.59;100.00;100453.69;6198322;23;20007;-78
2020/12/17 02:14:27;;;;;;;75.53;37.15;;;;;;;5.57;100.00;100459.47;6198955;23;20011;-78
2020/12/17 02:17:02;;;;;;;80.70;37.05;;;;;;;5.55;100.00;100464.41;6173607;23;20016;-78
2020/12/17 02:19:28;;;;;;;75.00;35.60;;;;;;;5.53;100.00;100465.75;6198776;23;20008;-78
2020/12/17 02:21:55;;;;;;;69.18;34.45;;;;;;;5.52;100.00;100472.38;6173264;23;20004;-78
2020/12/17 02:24:24;;;;;;;66.60;32.83;;;;;;;5.50;100.00;100469.88;6197982;23;20008;-77
2020/12/17 02:26:49;;;;;;;70.38;33.22;;;;;;;5.49;100.00;100470.97;6199469;23;20004;-78
2020/12/17 02:29:15;;;;;;;63.63;31.10;;;;;;;5.49;100.00;100476.47;6198129;23;20135;-78
2020/12/17 02:31:47;;;;;;;64.88;30.13;;;;;;;5.47;100.00;100484.16;6249537;22;20004;-78
2020/12/17 02:34:16;;;;;;;66.65;30.95;;;;;;;5.49;100.00;100479.22;6223492;23;20085;-78
2020/12/17 02:36:46;;;;;;;64.07;29.65;;;;;;;5.48;100.00;100483.06;6223490;23;20011;-78
2020/12/17 02:39:12;;;;;;;66.35;29.70;;;;;;;5.49;100.00;100482.00;6174161;23;20008;-78
2020/12/17 02:41:43;;;;;;;58.47;28.13;;;;;;;5.51;100.00;100481.72;6198465;23;20019;-78
2020/12/17 02:44:12;;;;;;;56.58;27.85;;;;;;;5.51;100.00;100490.81;6175470;23;20019;-78
2020/12/17 02:46:41;;;;;;;53.78;26.83;;;;;;;5.51;100.00;100485.28;6199857;23;20011;-78
2020/12/17 02:49:06;;;;;;;47.33;23.52;;;;;;;5.50;100.00;100493.84;6198446;23;20004;-78
2020/12/17 02:51:32;;;;;;;51.15;25.25;;;;;;;5.49;100.00;100498.50;6223395;23;20009;-78
2020/12/17 02:53:57;;;;;;;50.42;24.00;;;;;;;5.47;100.00;100495.19;6198119;23;20008;-77
2020/12/17 02:56:23;;;;;;;48.65;23.73;;;;;;;5.47;100.00;100494.34;6172722;23;20036;-78
2020/12/17 02:58:49;;;;;;;49.05;23.38;;;;;;;5.45;100.00;100486.34;6173815;23;20030;-78
2020/12/17 03:01:17;;;;;;;45.63;22.15;;;;;;;5.43;100.00;100502.28;6198030;23;20044;-77
2020/12/17 03:03:43;;;;;;;56.92;25.05;;;;;;;5.41;100.00;100496.22;6173465;23;20405;-78
2020/12/17 03:06:11;;;;;;;47.70;22.77;;;;;;;5.40;99.96;100497.31;6198239;23;20043;-78
2020/12/17 03:08:37;;;;;;;44.55;20.98;;;;;;;5.37;99.96;100501.41;6198871;23;20008;-78
2020/12/17 03:11:02;;;;;;;38.97;19.65;;;;;;;5.35;100.00;100497.28;6222566;23;20058;-78
2020/12/17 03:13:36;;;;;;;47.10;21.33;;;;;;;5.32;100.00;100497.75;6200722;23;20008;-78
2020/12/17 03:16:11;;;;;;;42.35;20.88;;;;;;;5.31;99.89;100496.13;6222642;22;20039;-78
2020/12/17 03:18:43;;;;;;;38.13;19.70;;;;;;;5.30;99.97;100502.72;6198688;23;20337;-78
2020/12/17 03:21:11;;;;;;;44.95;19.63;;;;;;;5.26;99.97;100507.06;6199596;23;20008;-78
2020/12/17 03:23:39;;;;;;;38.25;18.00;;;;;;;5.24;100.00;100506.53;6199703;23;20004;-78
2020/12/17 03:26:09;;;;;;;38.03;18.60;;;;;;;5.22;99.91;100514.19;6225047;23;20065;-77
2020/12/17 03:28:35;;;;;;;39.42;17.40;;;;;;;5.19;100.00;100509.22;6225675;23;20008;-78
2020/12/17 03:31:05;;;;;;;38.15;17.48;;;;;;;5.17;100.00;100505.88;6224452;23;20000;-78
2020/12/17 03:33:36;;;;;;;37.30;16.67;;;;;;;5.15;100.00;100506.13;6250302;23;20008;-78
2020/12/17 03:36:02;;;;;;;34.08;15.75;;;;;;;5.13;99.97;100505.56;6176195;23;20061;-78
2020/12/17 03:38:30;;;;;;;32.58;15.48;;;;;;;5.11;99.86;100511.31;6201354;23;20000;-78
2020/12/17 03:41:02;;;;;;;29.27;13.85;;;;;;;5.10;100.00;100514.34;6224418;23;20015;-78
2020/12/17 03:43:33;;;;;;;35.78;15.10;;;;;;;5.08;99.99;100514.59;6200573;23;20007;-78
2020/12/17 03:46:04;;;;;;;31.45;14.40;;;;;;;5.06;99.93;100522.28;6250386;23;20004;-77
2020/12/17 03:48:29;;;;;;;32.38;14.07;;;;;;;5.06;99.90;100518.69;6201151;23;20034;-78
2020/12/17 03:50:57;;;;;;;29.88;13.05;;;;;;;5.03;100.00;100532.97;6225090;23;20046;-78
2020/12/17 03:53:23;;;;;;;28.90;12.50;;;;;;;5.03;100.00;100530.22;6200576;23;20012;-78
2020/12/17 03:55:49;;;;;;;26.25;12.35;;;;;;;5.02;100.00;100542.31;6224205;23;20004;-78
2020/12/17 03:58:22;;;;;;;28.35;12.95;;;;;;;5.00;99.93;100531.56;6199131;23;20064;-78
2020/12/17 04:00:47;;;;;;;25.00;11.70;;;;;;;5.00;99.87;100534.31;6250364;23;20004;-78
2020/12/17 04:03:13;;;;;;;25.67;11.55;;;;;;;5.00;99.87;100539.00;6224546;23;20003;-78
2020/12/17 04:05:41;;;;;;;27.95;12.40;;;;;;;4.98;99.92;100541.97;6200913;23;20004;-77
2020/12/17 04:08:07;;;;;;;29.92;11.18;;;;;;;4.97;99.97;100543.09;6199459;23;20058;-78
2020/12/17 04:10:35;;;;;;;19.42;10.63;;;;;;;4.93;100.00;100542.78;6199043;23;20341;-78
2020/12/17 04:13:01;;;;;;;22.55;10.27;;;;;;;4.93;100.00;100555.69;6199861;23;20000;-78
2020/12/17 04:15:27;;;;;;;23.08;10.48;;;;;;;4.92;99.97;100554.84;6174798;23;20388;-78
2020/12/17 04:17:52;;;;;;;21.48;10.02;;;;;;;4.91;100.00;100558.69;6249740;22;20012;-78
2020/12/17 04:20:18;;;;;;;24.40;9.98;;;;;;;4.91;99.95;100568.88;6174270;23;20069;-78
2020/12/17 04:22:55;;;;;;;19.95;9.48;;;;;;;4.90;99.89;100562.56;6250015;23;20001;-78
2020/12/17 04:25:21;;;;;;;24.30;10.82;;;;;;;4.90;99.94;100564.44;6198621;23;20004;-77
2020/12/17 04:27:47;;;;;;;21.80;9.82;;;;;;;4.91;100.00;100566.13;6249543;23;20026;-78
2020/12/17 04:30:12;;;;;;;19.48;9.27;;;;;;;4.91;100.00;100569.72;6223985;23;20004;-78
2020/12/17 04:32:40;;;;;;;20.50;9.13;;;;;;;4.93;100.00;100563.94;6199012;23;20005;-78
2020/12/17 04:35:06;;;;;;;20.02;9.60;;;;;;;4.93;100.00;100572.19;6223954;23;20004;-78
2020/12/17 04:37:32;;;;;;;20.80;9.27;;;;;;;4.92;100.00;100576.03;6174739;23;20015;-77
2020/12/17 04:40:00;;;;;;;17.48;8.98;;;;;;;4.91;100.00;100577.13;6198993;23;20008;-78
2020/12/17 04:42:29;;;;;;;18.17;9.07;;;;;;;4.91;99.93;100579.91;6199629;23;20004;-78
2020/12/17 04:44:57;;;;;;;16.30;8.18;;;;;;;4.90;100.00;100583.72;6224192;23;20004;-78
2020/12/17 04:47:24;;;;;;;18.52;8.25;;;;;;;4.90;100.00;100580.97;6174300;23;20008;-78
2020/12/17 04:50:01;;;;;;;19.23;8.32;;;;;;;4.89;100.00;100582.06;6199609;23;20008;-78
2020/12/17 04:52:27;;;;;;;18.17;8.30;;;;;;;4.89;100.00;100593.06;6250032;23;20034;-78
2020/12/17 04:54:53;;;;;;;15.60;7.35;;;;;;;4.87;100.00;100585.06;6198228;23;20008;-78
2020/12/17 04:57:20;;;;;;;18.10;7.80;;;;;;;4.86;99.94;100593.56;6224521;23;20118;-78
2020/12/17 04:59:49;;;;;;;16.40;7.47;;;;;;;4.85;99.94;100587.25;6249618;23;20012;-78
2020/12/17 05:02:19;;;;;;;16.67;7.13;;;;;;;4.83;100.00;100594.91;6199928;23;20004;-78
2020/12/17 05:04:48;;;;;;;15.75;6.80;;;;;;;4.84;99.89;100604.00;6199492;23;20019;-78
2020/12/17 05:07:18;;;;;;;14.35;7.05;;;;;;;4.82;100.00;100607.03;6198884;23;20083;-78
2020/12/17 05:09:44;;;;;;;15.75;6.80;;;;;;;4.83;100.00;100611.44;6198251;23;20001;-78
2020/12/17 05:12:13;;;;;;;18.63;6.95;;;;;;;4.83;100.00;100605.09;6199478;23;20004;-78
2020/12/17 05:14:39;;;;;;;13.52;6.70;;;;;;;4.83;100.00;100605.09;6224236;23;20007;-78
2020/12/17 05:17:04;;;;;;;16.27;6.65;;;;;;;4.82;100.00;100606.16;6198648;23;20094;-78
2020/12/17 05:19:42;;;;;;;14.55;6.55;;;;;;;4.82;100.00;100614.41;6175436;23;20027;-78
2020/12/17 05:22:12;;;;;;;14.52;6.22;;;;;;;4.80;99.95;100616.63;6176850;23;20003;-78
2020/12/17 05:24:38;;;;;;;13.45;6.28;;;;;;;4.79;99.93;100623.19;6199249;23;20008;-78
2020/12/17 05:27:03;;;;;;;16.90;6.22;;;;;;;4.77;100.00;100626.19;6173696;23;20016;-77
2020/12/17 05:29:39;;;;;;;13.30;6.20;;;;;;;4.77;100.00;100633.63;6199043;23;20004;-78
2020/12/17 05:32:06;;;;;;;10.93;5.50;;;;;;;4.75;99.95;100638.53;6200929;23;20436;-78
2020/12/17 05:34:35;;;;;;;12.85;5.50;;;;;;;4.75;99.89;100635.78;6199075;23;20014;-78
2020/12/17 05:37:03;;;;;;;13.57;5.97;;;;;;;4.74;99.69;100631.38;6199792;23;20007;-78
2020/12/17 05:39:31;;;;;;;12.48;5.65;;;;;;;4.70;99.79;100634.63;6173796;23;20109;-77
2020/12/17 05:42:02;;;;;;;13.50;5.15;;;;;;;4.70;99.88;100640.13;6175743;23;20266;-78
2020/12/17 05:44:34;;;;;;;15.95;6.10;;;;;;;4.69;99.93;100643.13;6173814;23;20012;-78
2020/12/17 05:47:02;;;;;;;14.70;5.13;;;;;;;4.67;99.82;100646.13;6199482;23;20004;-78
2020/12/17 05:49:33;;;;;;;9.77;4.57;;;;;;;4.67;100.00;100645.31;6199520;23;20004;-78
2020/12/17 05:52:10;;;;;;;11.10;4.70;;;;;;;4.67;100.00;100648.06;6224042;23;20001;-78
2020/12/17 05:54:50;;;;;;;15.38;5.32;;;;;;;4.67;100.00;100657.13;6174876;23;20008;-78
2020/12/17 05:57:20;;;;;;;14.73;5.00;;;;;;;4.67;99.99;100657.13;6201753;23;20031;-78
2020/12/17 05:59:59;;;;;;;11.32;5.05;;;;;;;4.69;100.00;100665.97;6199377;23;20001;-77
2020/12/17 06:02:29;;;;;;;13.43;5.00;;;;;;;4.72;100.00;100661.88;6173617;23;20011;-78
2020/12/17 06:05:11;;;;;;;11.02;4.60;;;;;;;4.74;100.00;100667.16;6223601;23;20016;-77
2020/12/17 06:07:49;;;;;;;10.27;4.38;;;;;;;4.78;100.00;100671.06;6248700;23;20339;-78
2020/12/17 06:10:25;;;;;;;11.48;4.38;;;;;;;4.82;100.00;100674.97;6222986;23;20036;-78
2020/12/17 06:13:00;;;;;;;12.35;5.20;;;;;;;4.86;100.00;100665.13;6201236;23;20456;-77
2020/12/17 06:15:29;;;;;;;9.38;3.90;;;;;;;4.87;100.00;100672.28;6175110;23;20004;-73
2020/12/17 06:18:04;;;;;;;8.50;3.97;;;;;;;4.92;100.00;100672.38;6222605;23;20020;-77
2020/12/17 06:20:46;;;;;;;7.90;4.00;;;;;;;4.97;100.00;100672.44;6178364;23;20008;-78
2020/12/17 06:23:26;;;;;;;10.13;4.20;;;;;;;5.01;100.00;100679.09;6203511;23;20000;-78
2020/12/17 06:25:57;;;;;;;10.10;4.22;;;;;;;5.05;100.00;100683.03;6198523;23;20014;-77
2020/12/17 06:28:51;;;;;;;8.63;3.83;;;;;;;5.08;100.00;100688.03;6225195;23;20092;-78
2020/12/17 06:31:27;;;;;;;8.75;3.72;;;;;;;5.11;100.00;100692.19;6224863;23;20061;-78
2020/12/17 06:34:08;;;;;;;6.35;3.55;;;;;;;5.15;100.00;100688.69;6224951;23;20019;-78
2020/12/17 06:36:37;;;;;;;8.10;3.90;;;;;;;5.19;100.00;100699.19;6198829;23;20054;-78
2020/12/17 06:39:06;;;;;;;5.97;3.67;;;;;;;5.20;100.00;100698.09;6199095;23;20083;-78
2020/12/17 06:41:34;;;;;;;7.45;3.72;;;;;;;5.23;100.00;100709.44;6198309;23;20008;-78
2020/12/17 06:43:59;;;;;;;5.82;3.90;;;;;;;5.25;100.00;100717.44;6198420;23;20023;-78
2020/12/17 06:46:38;;;;;;;8.32;3.92;;;;;;;5.27;100.00;100707.84;6194265;23;20433;-77
2020/12/17 06:49:10;;;;;;;10.38;4.50;;;;;;;5.28;100.00;100714.19;6226166;23;20004;-78
2020/12/17 06:51:52;;;;;;;5.68;3.65;;;;;;;5.31;100.00;100719.19;6223500;23;20011;-78
2020/12/17 06:54:23;;;;;;;6.70;3.53;;;;;;;5.32;100.00;100718.94;6225431;23;20016;-78
2020/12/17 06:57:09;;;;;;;8.45;3.38;;;;;;;5.34;100.00;100724.19;6250608;23;20015;-78
2020/12/17 07:00:04;;;;;;;4.95;3.20;;;;;;;5.37;100.00;100724.50;6203696;23;20004;-78
2020/12/17 07:02:40;;;;;;;7.75;3.20;;;;;;;5.37;100.00;100727.25;6200537;23;20051;-78
2020/12/17 07:05:28;;;;;;;4.75;3.03;;;;;;;5.41;100.00;100726.78;6225867;23;20433;-78
2020/12/17 07:07:53;;;;;;;6.97;3.03;;;;;;;5.41;100.00;100735.84;6229776;23;20362;-78
2020/12/17 07:10:29;;;;;;;4.90;3.08;;;;;;;5.44;100.00;100737.28;6199483;23;20066;-77
2020/12/17 07:13:02;;;;;;;5.35;2.83;;;;;;;5.44;100.00;100734.53;6225307;23;20017;-77
2020/12/17 07:15:37;;;;;;;;;;;;;;;5.44;100.00;100743.59;6227065;23;20004;-77
2020/12/17 07:18:20;;;;;;;4.82;2.85;;;;;;;5.46;100.00;100746.09;6225010;23;19915;-78
2020/12/17 07:21:14;;;;;;;4.65;2.78;;;;;;;5.47;100.00;100748.59;6250634;23;20042;-78
2020/12/17 07:23:57;;;;;;;5.82;3.30;;;;;;;5.46;100.00;100752.47;6196454;23;20008;-78
2020/12/17 07:27:11;;;;;;;6.43;3.08;;;;;;;5.46;100.00;100757.09;6178495;23;20306;-78
2020/12/17 07:29:50;;;;;;;;;;;;;;;5.46;100.00;100763.47;6225064;23;20019;-78
2020/12/17 07:32:35;;;;;;;17.02;8.77;;;;;;;5.46;100.00;100760.72;6196827;23;19907;-78
2020/12/17 07:35:52;;;;;;;;;;;;;;;;;;;;;
2020/12/17 07:38:57;;;;;;;6.22;3.50;;;;;;;5.48;100.00;100775.06;6226200;23;20318;-78
2020/12/17 07:42:40;;;;;;;5.85;3.78;;;;;;;5.49;100.00;100785.00;6168498;22;20016;-79
2020/12/17 07:46:04;;;;;;;7.38;3.58;;;;;;;5.50;100.00;100794.09;6213197;23;20015;-78
2020/12/17 07:49:40;;;;;;;5.22;3.28;;;;;;;5.48;100.00;100788.84;6224633;23;20325;-78
2020/12/17 07:57:22;;;;;;;;;;;;;;;;;;;;;
2020/12/17 08:01:11;;;;;;;5.53;3.40;;;;;;;5.51;100.00;100798.50;6110411;23;20359;-78
2020/12/17 08:16:10;;;;;;;;;;;;;;;;;;;;;
2020/12/17 08:19:35;;;;;;;;;;;;;;;;;;;;;
2020/12/17 08:22:33;;;;;;;8.40;4.10;;;;;;;5.59;100.00;100829.22;6066724;23;20078;-78
2020/12/17 08:36:30;;;;;;;6.70;4.13;;;;;;;5.72;100.00;100840.97;5896979;24;20018;-78
2020/12/17 08:39:47;;;;;;;6.28;4.20;;;;;;;5.75;100.00;100845.97;5955380;24;20101;-78
2020/12/17 08:57:53;;;;;;;;;;;;;;;;;;;;;
2020/12/17 09:01:09;;;;;;;;;;;;;;;;;;;;;
2020/12/17 09:04:47;;;;;;;5.68;3.97;;;;;;;5.95;100.00;100864.75;5814073;24;20077;-78
2020/12/17 09:12:42;;;;;;;6.28;3.83;;;;;;;6.01;100.00;100872.00;5848067;24;20029;-78
2020/12/17 09:16:05;;;;;;;5.60;4.20;;;;;;;6.07;100.00;100872.91;5846326;24;20438;-78
2020/12/17 09:19:10;;;;;;;4.65;3.20;;;;;;;6.11;100.00;100874.09;5802467;24;20064;-77
2020/12/17 09:26:00;;;;;;;;;;;;;;;;;;;;;
2020/12/17 09:29:21;;;;;;;6.00;3.35;;;;;;;6.28;100.00;100893.31;5827966;24;20083;-79
2020/12/17 09:32:18;;;;;;;5.53;3.40;;;;;;;6.33;100.00;100894.22;5910743;23;20134;-77
2020/12/17 09:35:41;;;;;;;6.68;3.45;;;;;;;6.39;100.00;100901.47;5979847;23;20022;-77
2020/12/17 09:42:12;;;;;;;;;;;;;;;;;;;;;
2020/12/17 09:54:38;;;;;;;6.43;3.72;;;;;;;6.74;100.00;100916.78;5892335;24;20021;-79
2020/12/17 10:05:28;;;;;;;7.47;3.83;;;;;;;6.99;100.00;100931.97;5104151;27;958573;-77
2020/12/17 10:08:08;;;;;;;6.18;3.63;;;;;;;7.02;100.00;100928.66;5114957;28;20272;-76
2020/12/17 10:10:38;;;;;;;8.52;3.72;;;;;;;7.07;100.00;100931.50;5081089;28;20372;-76
2020/12/17 10:13:06;;;;;;;5.75;3.50;;;;;;;7.12;100.00;100932.38;5092097;28;20023;-77
2020/12/17 10:15:40;;;;;;;6.07;3.85;;;;;;;7.18;100.00;100937.97;5067249;28;20031;-77
2020/12/17 10:18:16;;;;;;;7.75;3.60;;;;;;;7.23;100.00;100947.13;5098601;28;20102;-77
2020/12/17 10:20:44;;;;;;;9.40;3.70;;;;;;;7.28;100.00;100943.59;5086218;28;20092;-77
2020/12/17 10:23:17;;;;;;;7.68;3.63;;;;;;;7.31;100.00;100946.66;5080842;28;20043;-76
2020/12/17 10:25:45;;;;;;;6.28;3.83;;;;;;;7.37;100.00;100959.41;5098250;28;20028;-77
2020/12/17 10:28:21;;;;;;;7.82;4.28;;;;;;;7.43;100.00;100954.78;5079343;28;20083;-77
2020/12/17 10:30:55;;;;;;;9.48;4.22;;;;;;;7.49;100.00;100961.19;5100795;28;20081;-77
2020/12/17 10:33:26;;;;;;;8.00;4.20;;;;;;;7.52;100.00;100957.88;5075380;28;20164;-77
2020/12/17 10:35:52;;;;;;;8.82;4.10;;;;;;;7.58;100.00;100960.47;5095458;28;20045;-76
2020/12/17 10:38:18;;;;;;;10.98;5.43;;;;;;;7.62;100.00;100958.00;5096318;28;20047;-77
2020/12/17 10:40:51;;;;;;;9.38;4.60;;;;;;;7.66;100.00;100961.91;5082505;28;20073;-77
2020/12/17 10:43:18;;;;;;;;;;;;;;;7.71;100.00;100953.63;5084171;28;20033;-76
2020/12/17 10:45:44;;;;;;;8.10;4.57;;;;;;;7.75;100.00;100954.78;5112937;28;19908;-71
2020/12/17 10:48:47;;;;;;;10.45;4.90;;;;;;;7.80;100.00;100951.22;5082178;28;20080;-77
2020/12/17 10:51:49;;;;;;;11.20;5.60;;;;;;;7.88;100.00;100958.19;5086299;28;20040;-77
2020/12/17 10:55:08;;;;;;;9.38;4.60;;;;;;;7.93;100.00;100950.75;5110248;28;20027;-77
2020/12/17 10:58:26;;;;;;;8.48;4.90;;;;;;;8.00;100.00;100953.31;5105839;28;20031;-77
2020/12/17 11:01:42;;;;;;;11.23;5.18;;;;;;;8.04;100.00;100952.50;5103659;28;20054;-76
2020/12/17 11:05:11;;;;;;;9.07;4.85;;;;;;;8.10;100.00;100955.31;5113494;28;20140;-77
2020/12/17 11:11:41;;;;;;;12.75;6.05;;;;;;;8.23;100.00;100950.13;5067229;28;20032;-78
2020/12/17 11:14:07;;;;;;;8.73;4.93;;;;;;;8.27;100.00;100955.94;5115528;27;20107;-73
2020/12/17 11:16:33;;;;;;;10.77;5.25;;;;;;;8.34;100.00;100952.97;5121007;28;20032;-76
2020/12/17 11:19:01;;;;;;;9.98;5.95;;;;;;;8.41;100.00;100953.56;5064313;28;20020;-76
2020/12/17 11:21:27;;;;;;;11.75;5.45;;;;;;;8.47;100.00;100953.34;5083500;28;20028;-76
2020/12/17 11:23:52;;;;;;;12.43;5.65;;;;;;;8.56;100.00;100942.59;5068183;28;20043;-76
2020/12/17 11:26:18;;;;;;;9.15;6.07;;;;;;;8.63;100.00;100943.16;5081081;28;20027;-76
2020/12/17 11:28:43;;;;;;;11.52;6.15;;;;;;;8.71;100.00;100933.50;5067747;28;20031;-74
2020/12/17 11:31:09;;;;;;;17.08;6.75;;;;;;;8.80;100.00;100940.16;5079462;28;20028;-76
2020/12/17 11:33:34;;;;;;;13.48;6.13;;;;;;;8.90;100.00;100947.69;5083047;28;20027;-76
2020/12/17 11:36:00;;;;;;;11.13;5.45;;;;;;;8.97;100.00;100936.34;5064471;28;20478;-76
2020/12/17 11:38:26;;;;;;;10.43;4.68;;;;;;;9.05;100.00;100936.66;5111335;28;20111;-76
2020/12/17 11:40:52;;;;;;;13.85;5.22;;;;;;;9.14;100.00;100943.34;5078066;28;20053;-76
2020/12/17 11:43:17;;;;;;;14.75;6.65;;;;;;;9.20;100.00;100941.41;5050696;28;20038;-76
2020/12/17 11:45:43;;;;;;;10.05;5.30;;;;;;;9.26;100.00;100945.00;5098843;28;20364;-77
2020/12/17 11:48:09;;;;;;;13.13;5.40;;;;;;;9.32;100.00;100949.44;5060259;28;20054;-77
2020/12/17 11:50:35;;;;;;;12.75;5.88;;;;;;;9.37;100.00;100941.16;5079538;28;20036;-77
2020/12/17 11:53:00;;;;;;;14.55;5.20;;;;;;;9.42;100.00;100943.94;5084574;28;20037;-76
2020/12/17 11:55:26;;;;;;;12.02;4.97;;;;;;;9.48;100.00;100934.50;5081648;28;20028;-76
2020/12/17 11:57:51;;;;;;;12.43;5.55;;;;;;;9.54;100.00;100938.94;5097383;28;20047;-76
2020/12/17 12:00:17;;;;;;;14.80;5.15;;;;;;;9.57;100.00;100934.78;5064661;28;20433;-76
2020/12/17 12:02:43;;;;;;;12.95;5.20;;;;;;;9.61;100.00;100928.41;5089185;28;20028;-77
2020/12/17 12:05:09;;;;;;;13.35;5.40;;;;;;;9.67;100.00;100923.69;5073412;28;20439;-77
2020/12/17 12:07:34;;;;;;;16.05;7.95;;;;;;;9.72;99.75;100925.63;5076583;28;20435;-76
2020/12/17 12:10:02;;;;;;;15.98;8.40;;;;;;;9.75;99.56;100919.50;5043151;28;20029;-76
2020/12/17 12:12:28;;;;;;;16.05;5.70;;;;;;;9.78;99.89;100925.34;5046022;28;20040;-77
2020/12/17 12:14:54;;;;;;;15.77;5.22;;;;;;;9.84;99.67;100923.41;5057682;28;20078;-76
2020/12/17 12:17:19;;;;;;;11.90;5.78;;;;;;;9.87;99.78;100922.03;5082720;28;20036;-76
2020/12/17 12:19:45;;;;;;;11.95;5.40;;;;;;;9.91;99.69;100917.56;5081039;28;20031;-77
2020/12/17 12:22:10;;;;;;;14.38;4.72;;;;;;;9.91;98.98;100926.72;5062267;28;20384;-77
2020/12/17 12:24:36;;;;;;;11.68;3.97;;;;;;;9.95;98.83;100925.06;5063225;28;20073;-77
2020/12/17 12:27:02;;;;;;;12.75;4.50;;;;;;;9.98;98.54;100920.88;5034985;28;20027;-76
2020/12/17 12:29:27;;;;;;;12.98;4.65;;;;;;;10.00;99.00;100915.88;5080789;28;20042;-76
2020/12/17 12:31:53;;;;;;;10.68;4.10;;;;;;;10.02;98.59;100920.03;5068112;28;20105;-76
2020/12/17 12:34:18;;;;;;;10.55;4.28;;;;;;;10.02;98.76;100919.22;5072124;28;20032;-76
2020/12/17 12:36:54;;;;;;;13.15;3.67;;;;;;;10.03;98.37;100915.34;5082080;28;20028;-76
2020/12/17 12:39:19;;;;;;;10.68;3.67;;;;;;;10.03;98.51;100910.63;5049526;28;20024;-76
2020/12/17 12:41:49;;;;;;;13.77;3.75;;;;;;;10.02;98.41;100917.25;5067062;28;20035;-77
2020/12/17 12:44:14;;;;;;;13.98;4.05;;;;;;;10.02;98.25;100902.56;5068646;28;20028;-76
2020/12/17 12:46:40;;;;;;;14.88;4.85;;;;;;;10.00;97.76;100913.94;5052886;28;20047;-77
2020/12/17 12:49:06;;;;;;;19.17;7.93;;;;;;;10.00;97.68;100908.41;5080928;28;20023;-76
2020/12/17 12:51:31;;;;;;;20.98;8.43;;;;;;;9.99;97.88;100909.50;5053563;28;20031;-76
2020/12/17 12:53:57;;;;;;;18.33;7.88;;;;;;;9.98;98.16;100907.84;5080259;28;20070;-76
2020/12/17 12:56:26;;;;;;;20.83;7.47;;;;;;;9.97;98.13;100908.97;5074690;28;20032;-77
2020/12/17 12:58:52;;;;;;;14.65;6.07;;;;;;;9.94;97.90;100903.94;5063668;28;20028;-76
2020/12/17 13:01:17;;;;;;;15.40;5.78;;;;;;;9.95;98.32;100897.31;5061051;28;20034;-77
2020/12/17 13:03:43;;;;;;;15.50;4.95;;;;;;;9.92;98.66;100897.88;5088380;28;20028;-77
2020/12/17 13:06:15;;;;;;;15.68;4.80;;;;;;;9.94;98.98;100901.19;5075567;28;20040;-76
2020/12/17 13:08:41;;;;;;;12.87;5.13;;;;;;;9.94;99.35;100905.91;5072054;28;20024;-76
2020/12/17 13:11:17;;;;;;;16.02;5.75;;;;;;;9.96;99.36;100907.28;5092921;28;20031;-76
2020/12/17 13:13:42;;;;;;;15.95;3.67;;;;;;;9.97;99.58;100892.31;5096611;28;20028;-76
2020/12/17 13:16:08;;;;;;;16.60;3.60;;;;;;;9.97;100.00;100889.53;5088355;28;20043;-76